createdAt,value
2019-06-07T00:00:33.279Z,95961.45
2019-06-07T00:02:47.769Z,95960.47
2019-06-07T00:05:18.646Z,95960.46
2019-06-07T00:07:43.926Z,95961.14
2019-06-07T00:10:14.453Z,95957.39
2019-06-07T00:12:40.010Z,95952.98
2019-06-07T00:15:14.309Z,95948.23
2019-06-07T00:17:35.828Z,95950.97
2019-06-07T00:20:03.157Z,95957.27
2019-06-07T00:22:33.272Z,95955.16
2019-06-07T00:24:59.304Z,95948.20
2019-06-07T00:27:26.351Z,95944.97
2019-06-07T00:29:53.708Z,95949.00
2019-06-07T00:32:22.002Z,95949.62
2019-06-07T00:34:49.490Z,95946.55
2019-06-07T00:37:19.768Z,95950.27
2019-06-07T00:39:45.774Z,95959.27
2019-06-07T00:42:16.713Z,95951.64
2019-06-07T00:44:42.802Z,95949.86
2019-06-07T00:47:10.673Z,95946.62
2019-06-07T00:49:41.452Z,95941.38
2019-06-07T00:52:07.052Z,95932.24
2019-06-07T00:54:34.131Z,95930.25
2019-06-07T00:57:01.481Z,95924.53
2019-06-07T00:59:29.763Z,95916.53
2019-06-07T01:01:57.214Z,95912.62
2019-06-07T01:04:26.683Z,95908.55
2019-06-07T01:06:53.097Z,95910.81
2019-06-07T01:09:22.431Z,95911.12
2019-06-07T01:11:48.887Z,95908.50
2019-06-07T01:14:21.454Z,95908.20
2019-06-07T01:16:57.235Z,95906.27
2019-06-07T01:19:14.164Z,95900.92
2019-06-07T01:21:41.213Z,95892.05
2019-06-07T01:24:12.331Z,95893.70
2019-06-07T01:26:37.364Z,95894.23
2019-06-07T01:29:04.830Z,95890.00
2019-06-07T01:31:32.147Z,95880.90
2019-06-07T01:33:59.452Z,95882.38
2019-06-07T01:36:29.569Z,95877.98
2019-06-07T01:38:55.338Z,95880.09
2019-06-07T01:41:25.416Z,95880.91
2019-06-07T01:43:51.141Z,95873.42
2019-06-07T01:46:18.496Z,95872.93
2019-06-07T01:48:49.544Z,95873.25
2019-06-07T01:51:14.790Z,95872.77
2019-06-07T01:53:42.090Z,95885.14
2019-06-07T01:56:10.118Z,95884.66
2019-06-07T01:58:37.532Z,95888.56
2019-06-07T02:01:04.587Z,95893.77
2019-06-07T02:03:33.099Z,95894.75
2019-06-07T02:06:00.658Z,95890.02
2019-06-07T02:08:34.070Z,95888.72
2019-06-07T02:10:56.735Z,95894.91
2019-06-07T02:13:27.405Z,95892.63
2019-06-07T02:15:52.526Z,95890.19
2019-06-07T02:18:21.815Z,95886.61
2019-06-07T02:20:48.632Z,95890.84
2019-06-07T02:23:15.676Z,95884.16
2019-06-07T02:25:50.039Z,95889.05
2019-06-07T02:28:27.650Z,95879.61
2019-06-07T02:30:50.545Z,95881.56
2019-06-07T02:33:09.345Z,95875.05
2019-06-07T02:35:40.233Z,95875.37
2019-06-07T02:38:05.759Z,95877.81
2019-06-07T02:40:37.268Z,95875.70
2019-06-07T02:43:01.561Z,95877.16
2019-06-07T02:45:32.885Z,95870.48
2019-06-07T02:47:57.936Z,95868.20
2019-06-07T02:50:26.235Z,95863.81
2019-06-07T02:52:54.052Z,95870.16
2019-06-07T02:55:21.099Z,95863.31
2019-06-07T02:57:48.530Z,95854.69
2019-06-07T03:00:41.493Z,95854.35
2019-06-07T03:02:44.752Z,95855.33
2019-06-07T03:05:11.774Z,95850.28
2019-06-07T03:07:44.544Z,95849.63
2019-06-07T03:10:08.113Z,95843.94
2019-06-07T03:12:35.615Z,95846.55
2019-06-07T03:15:02.603Z,95846.38
2019-06-07T03:17:34.688Z,95843.45
2019-06-07T03:19:59.544Z,95840.52
2019-06-07T03:22:26.785Z,95838.89
2019-06-07T03:24:54.101Z,95836.94
2019-06-07T03:27:48.861Z,95831.08
2019-06-07T03:29:50.170Z,95833.84
2019-06-07T03:32:17.312Z,95835.61
2019-06-07T03:34:44.365Z,95832.92
2019-06-07T03:37:11.690Z,95826.41
2019-06-07T03:39:40.955Z,95828.34
2019-06-07T03:42:11.748Z,95830.02
2019-06-07T03:44:41.561Z,95834.72
2019-06-07T03:47:08.516Z,95839.55
2019-06-07T03:49:39.408Z,95839.23
2019-06-07T03:52:04.320Z,95841.82
2019-06-07T03:54:32.074Z,95844.67
2019-06-07T03:56:59.751Z,95845.58
2019-06-07T03:59:28.431Z,95836.30
2019-06-07T04:01:55.790Z,95835.85
2019-06-07T04:04:22.828Z,95830.65
2019-06-07T04:06:49.949Z,95828.70
2019-06-07T04:09:17.244Z,95825.77
2019-06-07T04:11:44.598Z,95823.04
2019-06-07T04:14:11.649Z,95819.95
2019-06-07T04:16:44.164Z,95822.40
2019-06-07T04:19:07.449Z,95818.14
2019-06-07T04:21:40.360Z,95816.84
2019-06-07T04:24:04.551Z,95811.63
2019-06-07T04:26:34.440Z,95816.64
2019-06-07T04:29:32.400Z,95809.11
2019-06-07T04:31:32.168Z,95813.38
2019-06-07T04:33:58.889Z,95808.64
2019-06-07T04:36:41.818Z,95807.48
2019-06-07T04:38:55.341Z,95802.75
2019-06-07T04:41:22.388Z,95801.41
2019-06-07T04:43:49.451Z,95792.89
2019-06-07T04:46:16.789Z,95805.17
2019-06-07T04:48:44.176Z,95801.25
2019-06-07T04:51:11.505Z,95800.23
2019-06-07T04:53:43.468Z,95797.06
2019-06-07T04:56:10.921Z,95807.69
2019-06-07T04:58:41.343Z,95803.45
2019-06-07T05:01:26.350Z,95801.22
2019-06-07T05:03:40.808Z,95794.23
2019-06-07T05:06:05.933Z,95784.17
2019-06-07T05:08:36.135Z,95782.09
2019-06-07T05:11:03.089Z,95773.73
2019-06-07T05:13:31.424Z,95780.97
2019-06-07T05:15:58.849Z,95778.45
2019-06-07T05:18:26.165Z,95775.42
2019-06-07T05:20:53.460Z,95769.98
2019-06-07T05:24:00.159Z,95766.77
2019-06-07T05:25:49.503Z,95765.58
2019-06-07T05:28:16.878Z,95761.23
2019-06-07T05:31:03.714Z,95758.18
2019-06-07T05:33:13.011Z,95756.12
2019-06-07T05:35:42.899Z,95758.75
2019-06-07T05:38:08.807Z,95766.55
2019-06-07T05:40:38.729Z,95772.88
2019-06-07T05:43:05.045Z,95772.11
2019-06-07T05:45:32.509Z,95775.18
2019-06-07T05:48:00.465Z,95778.10
2019-06-07T05:50:41.501Z,95774.52
2019-06-07T05:52:58.030Z,95774.16
2019-06-07T05:55:25.367Z,95771.73
2019-06-07T05:57:52.714Z,95774.07
2019-06-07T06:00:19.780Z,95768.36
2019-06-07T06:03:03.621Z,95774.84
2019-06-07T06:05:32.609Z,95767.97
2019-06-07T06:07:50.556Z,95774.21
2019-06-07T06:10:14.411Z,95772.03
2019-06-07T06:12:46.130Z,95779.95
2019-06-07T06:15:10.590Z,95769.14
2019-06-07T06:17:42.683Z,95766.05
2019-06-07T06:20:06.657Z,95764.22
2019-06-07T06:22:33.693Z,95760.27
2019-06-07T06:25:30.999Z,95763.30
2019-06-07T06:28:03.280Z,95760.48
2019-06-07T06:29:58.532Z,95755.75
2019-06-07T06:32:46.647Z,95749.23
2019-06-07T06:34:55.894Z,95750.03
2019-06-07T06:37:23.221Z,95747.00
2019-06-07T06:39:50.374Z,95747.31
2019-06-07T06:42:17.398Z,95751.58
2019-06-07T06:44:47.105Z,95750.31
2019-06-07T06:47:13.525Z,95749.67
2019-06-07T06:49:41.721Z,95754.55
2019-06-07T06:52:09.316Z,95753.47
2019-06-07T06:54:43.085Z,95754.95
2019-06-07T06:57:19.222Z,95750.59
2019-06-07T06:59:39.285Z,95752.50
2019-06-07T07:02:02.845Z,95742.08
2019-06-07T07:04:30.154Z,95742.57
2019-06-07T07:06:57.190Z,95738.75
2019-06-07T07:09:24.243Z,95730.86
2019-06-07T07:12:08.854Z,95735.36
2019-06-07T07:14:20.031Z,95736.84
2019-06-07T07:16:51.939Z,95728.26
2019-06-07T07:19:15.845Z,95735.94
2019-06-07T07:21:45.835Z,95724.22
2019-06-07T07:24:21.746Z,95730.92
2019-06-07T07:26:42.960Z,95728.80
2019-06-07T07:29:09.465Z,95727.88
2019-06-07T07:31:36.518Z,95727.03
2019-06-07T07:36:39.384Z,95712.42
2019-06-07T07:39:05.005Z,95704.83
2019-06-07T07:41:31.122Z,95704.20
2019-06-07T07:44:05.800Z,95700.64
2019-06-07T07:46:29.463Z,95694.68
2019-06-07T07:48:56.268Z,95696.30
2019-06-07T07:51:23.379Z,95683.86
2019-06-07T07:54:02.158Z,95673.50
2019-06-07T07:56:20.476Z,95664.55
2019-06-07T07:58:51.171Z,95672.50
2019-06-07T08:01:16.262Z,95670.43
2019-06-07T08:03:43.297Z,95668.06
2019-06-07T08:06:10.619Z,95665.53
2019-06-07T08:08:37.649Z,95665.06
2019-06-07T08:11:04.706Z,95659.33
2019-06-07T08:13:31.743Z,95666.97
2019-06-07T08:16:06.228Z,95669.67
2019-06-07T08:18:27.850Z,95677.25
2019-06-07T08:21:15.380Z,95666.69
2019-06-07T08:23:23.647Z,95659.94
2019-06-07T08:25:52.710Z,95650.16
2019-06-07T08:28:19.450Z,95660.18
2019-06-07T08:30:52.207Z,95644.81
2019-06-07T08:33:26.139Z,95643.30
2019-06-07T08:36:06.044Z,95632.81
2019-06-07T08:38:26.015Z,95631.48
2019-06-07T08:40:42.332Z,95619.75
2019-06-07T08:43:19.509Z,95619.41
2019-06-07T08:45:38.455Z,95616.18
2019-06-07T08:48:26.649Z,95614.86
2019-06-07T08:50:34.795Z,95610.66
2019-06-07T08:53:11.437Z,95595.23
2019-06-07T08:55:30.594Z,95593.11
2019-06-07T08:58:04.229Z,95580.66
2019-06-07T09:00:45.143Z,95585.25
2019-06-07T09:03:00.930Z,95590.63
2019-06-07T09:05:24.463Z,95578.70
2019-06-07T09:08:13.483Z,95573.95
2019-06-07T09:10:20.899Z,95566.96
2019-06-07T09:12:47.959Z,95565.39
2019-06-07T09:15:23.176Z,95555.95
2019-06-07T09:18:29.774Z,95558.67
2019-06-07T09:20:35.261Z,95558.72
2019-06-07T09:22:41.520Z,95560.16
2019-06-07T09:25:20.045Z,95570.30
2019-06-07T09:27:37.312Z,95558.72
2019-06-07T09:30:11.746Z,95565.53
2019-06-07T09:32:33.119Z,95562.07
2019-06-07T09:35:07.343Z,95560.16
2019-06-07T09:40:09.688Z,95552.13
2019-06-07T09:42:28.263Z,95563.70
2019-06-07T09:44:57.351Z,95558.63
2019-06-07T09:47:32.526Z,95564.70
2019-06-07T09:49:53.132Z,95556.14
2019-06-07T09:52:20.492Z,95561.17
2019-06-07T09:55:09.322Z,95558.70
2019-06-07T09:57:17.888Z,95553.03
2019-06-07T09:59:45.478Z,95555.86
2019-06-07T10:02:13.983Z,95548.64
2019-06-07T10:04:41.033Z,95541.71
2019-06-07T10:07:28.140Z,95539.08
2019-06-07T10:12:06.681Z,95528.65
2019-06-07T10:14:33.726Z,95524.06
2019-06-07T10:17:01.091Z,95520.09
2019-06-07T10:19:28.128Z,95521.63
2019-06-07T10:21:55.501Z,95516.80
2019-06-07T10:24:22.542Z,95518.37
2019-06-07T10:26:49.896Z,95523.53
2019-06-07T10:29:16.965Z,95520.87
2019-06-07T10:31:44.000Z,95519.28
2019-06-07T10:34:11.050Z,95521.71
2019-06-07T10:36:38.120Z,95518.21
2019-06-07T10:39:06.867Z,95518.21
2019-06-07T10:41:34.084Z,95521.93
2019-06-07T10:44:01.481Z,95514.93
2019-06-07T10:46:28.840Z,95503.28
2019-06-07T10:48:56.223Z,95496.06
2019-06-07T10:51:24.390Z,95501.14
2019-06-07T10:53:51.723Z,95498.14
2019-06-07T10:56:18.763Z,95501.97
2019-06-07T10:58:46.087Z,95500.09
2019-06-07T11:01:14.395Z,95509.69
2019-06-07T11:03:41.915Z,95501.16
2019-06-07T11:06:10.119Z,95489.85
2019-06-07T11:08:38.255Z,95486.81
2019-06-07T11:11:05.983Z,95483.87
2019-06-07T11:13:33.063Z,95483.93
2019-06-07T11:16:00.124Z,95478.47
2019-06-07T11:18:27.406Z,95473.52
2019-06-07T11:20:54.688Z,95465.83
2019-06-07T11:23:21.982Z,95461.02
2019-06-07T11:25:49.261Z,95455.77
2019-06-07T11:28:16.319Z,95461.62
2019-06-07T11:30:44.594Z,95454.70
2019-06-07T11:33:13.301Z,95449.93
2019-06-07T11:35:40.771Z,95455.42
2019-06-07T11:38:08.316Z,95457.39
2019-06-07T11:40:36.141Z,95453.87
2019-06-07T11:43:03.316Z,95452.28
2019-06-07T11:45:30.345Z,95459.04
2019-06-07T11:47:59.851Z,95443.11
2019-06-07T11:50:26.496Z,95441.47
2019-06-07T11:52:53.550Z,95453.05
2019-06-07T11:55:20.982Z,95446.44
2019-06-07T11:57:48.007Z,95446.98
2019-06-07T12:00:16.449Z,95444.03
2019-06-07T12:02:44.351Z,95440.97
2019-06-07T12:05:15.334Z,95437.77
2019-06-07T12:07:40.138Z,95435.44
2019-06-07T12:10:08.443Z,95426.80
2019-06-07T12:12:37.121Z,95419.91
2019-06-07T12:15:04.509Z,95423.47
2019-06-07T12:17:31.833Z,95422.06
2019-06-07T12:22:31.995Z,95400.48
2019-06-07T12:24:59.322Z,95411.80
2019-06-07T12:27:26.368Z,95411.97
2019-06-07T12:29:53.424Z,95413.20
2019-06-07T12:32:21.575Z,95400.94
2019-06-07T12:34:49.084Z,95403.24
2019-06-07T12:37:19.324Z,95396.33
2019-06-07T12:39:45.505Z,95390.51
2019-06-07T12:42:12.860Z,95403.99
2019-06-07T12:44:40.214Z,95395.08
2019-06-07T12:47:07.570Z,95392.35
2019-06-07T12:49:34.928Z,95389.23
2019-06-07T12:52:01.980Z,95384.84
2019-06-07T12:54:29.029Z,95380.78
2019-06-07T12:56:56.097Z,95381.83
2019-06-07T12:59:24.290Z,95370.11
2019-06-07T13:01:51.801Z,95370.49
2019-06-07T13:04:18.854Z,95362.64
2019-06-07T13:06:46.226Z,95353.09
2019-06-07T13:09:13.285Z,95351.52
2019-06-07T13:11:40.606Z,95349.44
2019-06-07T13:14:07.658Z,95353.77
2019-06-07T13:16:35.010Z,95351.43
2019-06-07T13:19:02.391Z,95353.80
2019-06-07T13:21:29.435Z,95340.84
2019-06-07T13:23:56.760Z,95346.39
2019-06-07T13:26:25.050Z,95335.25
2019-06-07T13:28:52.185Z,95338.67
2019-06-07T13:31:20.952Z,95341.34
2019-06-07T13:33:48.568Z,95330.75
2019-06-07T13:36:16.040Z,95333.88
2019-06-07T13:38:43.431Z,95325.28
2019-06-07T13:41:10.543Z,95323.45
2019-06-07T13:43:37.603Z,95318.84
2019-06-07T13:46:04.642Z,95322.88
2019-06-07T13:48:32.058Z,95323.27
2019-06-07T13:50:59.132Z,95316.16
2019-06-07T13:53:26.489Z,95311.87
2019-06-07T13:55:53.831Z,95308.83
2019-06-07T13:58:22.531Z,95298.38
2019-06-07T14:00:49.726Z,95303.50
2019-06-07T14:03:20.718Z,95302.14
2019-06-07T14:05:45.898Z,95294.34
2019-06-07T14:08:13.352Z,95293.34
2019-06-07T14:10:40.331Z,95301.35
2019-06-07T14:13:07.616Z,95297.36
2019-06-07T14:15:34.701Z,95299.78
2019-06-07T14:18:02.988Z,95288.56
2019-06-07T14:20:34.120Z,95278.08
2019-06-07T14:22:59.434Z,95283.03
2019-06-07T14:25:27.307Z,95283.73
2019-06-07T14:27:54.555Z,95274.91
2019-06-07T14:30:21.852Z,95268.75
2019-06-07T14:32:49.366Z,95275.67
2019-06-07T14:35:16.419Z,95267.37
2019-06-07T14:37:43.463Z,95268.47
2019-06-07T14:40:10.517Z,95264.70
2019-06-07T14:42:37.556Z,95260.97
2019-06-07T14:45:06.019Z,95264.19
2019-06-07T14:47:34.169Z,95262.02
2019-06-07T14:50:01.298Z,95265.69
2019-06-07T14:52:28.930Z,95268.11
2019-06-07T14:54:56.289Z,95255.07
2019-06-07T14:57:25.025Z,95261.48
2019-06-07T14:59:52.532Z,95247.55
2019-06-07T15:02:19.570Z,95247.23
2019-06-07T15:04:46.611Z,95250.05
2019-06-07T15:07:13.977Z,95248.91
2019-06-07T15:09:41.330Z,95252.60
2019-06-07T15:12:23.923Z,95251.84
2019-06-07T15:14:37.653Z,95265.92
2019-06-07T15:17:06.175Z,95275.56
2019-06-07T15:19:34.537Z,95266.41
2019-06-07T15:22:02.305Z,95267.09
2019-06-07T15:24:32.655Z,95268.22
2019-06-07T15:26:58.085Z,95277.12
2019-06-07T15:29:25.126Z,95268.64
2019-06-07T15:31:52.181Z,95269.95
2019-06-07T15:34:19.495Z,95263.83
2019-06-07T15:36:46.845Z,95256.62
2019-06-07T15:39:14.214Z,95259.80
2019-06-07T15:41:41.560Z,95262.95
2019-06-07T15:44:08.602Z,95256.12
2019-06-07T15:46:35.976Z,95248.59
2019-06-07T15:49:03.038Z,95256.81
2019-06-07T15:51:34.542Z,95244.45
2019-06-07T15:54:13.290Z,95256.23
2019-06-07T15:56:47.502Z,95261.84
2019-06-07T15:59:15.741Z,95268.83
2019-06-07T16:04:25.211Z,95270.64
2019-06-07T16:06:57.412Z,95272.06
2019-06-07T16:09:34.550Z,95260.03
2019-06-07T16:12:01.617Z,95266.16
2019-06-07T16:14:28.673Z,95256.88
2019-06-07T16:16:59.002Z,95257.93
2019-06-07T16:19:27.250Z,95270.75
2019-06-07T16:21:55.438Z,95279.34
2019-06-07T16:24:29.841Z,95276.19
2019-06-07T16:26:58.195Z,95271.11
2019-06-07T16:29:27.426Z,95273.25
2019-06-07T16:31:55.633Z,95285.28
2019-06-07T16:34:32.681Z,95288.24
2019-06-07T16:36:59.742Z,95290.70
2019-06-07T16:39:29.113Z,95286.78
2019-06-07T16:41:56.453Z,95284.39
2019-06-07T16:44:23.504Z,95287.91
2019-06-07T16:46:50.571Z,95290.62
2019-06-07T16:49:18.626Z,95286.89
2019-06-07T16:51:49.401Z,95287.43
2019-06-07T16:54:17.869Z,95289.86
2019-06-07T16:56:49.806Z,95288.77
2019-06-07T16:59:25.358Z,95287.47
2019-06-07T17:01:54.404Z,95280.29
2019-06-07T17:04:21.634Z,95277.64
2019-06-07T17:06:48.702Z,95283.52
2019-06-07T17:09:15.943Z,95281.63
2019-06-07T17:11:46.306Z,95286.48
2019-06-07T17:14:21.898Z,95285.75
2019-06-07T17:16:50.298Z,95285.62
2019-06-07T17:19:24.391Z,95278.22
2019-06-07T17:21:52.839Z,95264.98
2019-06-07T17:27:08.869Z,95251.73
2019-06-07T17:29:36.922Z,95255.74
2019-06-07T17:32:05.182Z,95265.80
2019-06-07T17:39:46.862Z,95366.93
2019-06-07T17:42:14.247Z,95443.77
2019-06-07T17:44:45.008Z,95450.72
2019-06-07T17:47:15.009Z,95471.95
2019-06-07T17:49:45.817Z,95485.89
2019-06-07T17:52:13.079Z,95480.72
2019-06-07T18:00:27.640Z,95475.48
2019-06-07T18:02:36.705Z,95502.28
2019-06-07T18:05:05.198Z,95506.99
2019-06-07T18:07:33.811Z,95516.07
2019-06-07T18:10:03.315Z,95530.89
2019-06-07T18:12:30.413Z,95548.56
2019-06-07T18:15:10.107Z,95547.66
2019-06-07T18:17:38.595Z,95575.00
2019-06-07T18:20:07.912Z,95617.36
2019-06-07T18:22:39.221Z,95648.44
2019-06-07T18:25:15.632Z,95666.52
2019-06-07T18:27:43.824Z,95675.15
2019-06-07T18:30:20.071Z,95705.12
2019-06-07T18:32:48.763Z,95710.42
2019-06-07T18:35:16.697Z,95730.83
2019-06-07T18:37:43.753Z,95733.26
2019-06-07T18:40:12.228Z,95740.05
2019-06-07T18:42:40.012Z,95739.98
2019-06-07T18:45:08.595Z,95746.64
2019-06-07T18:47:42.797Z,95749.54
2019-06-07T18:50:11.382Z,95750.34
2019-06-07T18:52:38.556Z,95755.45
2019-06-07T18:55:07.108Z,95776.72
2019-06-07T18:57:34.289Z,95784.49
2019-06-07T19:00:01.944Z,95786.16
2019-06-07T19:02:30.233Z,95808.06
2019-06-07T19:05:00.470Z,95816.22
2019-06-07T19:07:28.395Z,95829.85
2019-06-07T19:09:57.007Z,95843.37
2019-06-07T19:12:26.204Z,95856.80
2019-06-07T19:14:55.586Z,95871.31
2019-06-07T19:17:23.445Z,95871.58
2019-06-07T19:22:29.061Z,95883.22
2019-06-07T19:25:01.184Z,95897.22
2019-06-07T19:27:28.915Z,95915.41
2019-06-07T19:29:56.792Z,95919.22
2019-06-07T19:32:23.988Z,95925.23
2019-06-07T19:34:51.221Z,95919.23
2019-06-07T19:37:27.410Z,95922.86
2019-06-07T19:39:55.890Z,95937.60
2019-06-07T19:42:24.156Z,95950.03
2019-06-07T19:44:55.374Z,95948.59
2019-06-07T19:47:31.161Z,95954.53
2019-06-07T19:49:59.352Z,95950.54
2019-06-07T19:52:27.785Z,95978.71
2019-06-07T19:55:01.756Z,95975.09
2019-06-07T19:57:35.449Z,95993.77
2019-06-07T20:00:13.138Z,96000.08
2019-06-07T20:02:35.435Z,96004.83
2019-06-07T20:05:06.800Z,96008.08
2019-06-07T20:07:50.609Z,96021.27
2019-06-07T20:10:19.870Z,96022.58
2019-06-07T20:12:47.809Z,96027.70
2019-06-07T20:17:53.000Z,96036.82
2019-06-07T20:20:24.911Z,96042.02
2019-06-07T20:22:52.789Z,96043.89
2019-06-07T20:25:23.430Z,96051.58
2019-06-07T20:27:50.596Z,96047.45
2019-06-07T20:30:18.137Z,96057.95
2019-06-07T20:32:47.351Z,96051.84
2019-06-07T20:35:18.004Z,96065.27
2019-06-07T20:37:50.365Z,96066.34
2019-06-07T20:40:24.306Z,96073.22
2019-06-07T20:42:46.501Z,96077.02
2019-06-07T20:45:14.687Z,96091.02
2019-06-07T20:47:50.055Z,96092.96
2019-06-07T20:50:21.378Z,96096.22
2019-06-07T20:52:48.613Z,96101.16
2019-06-07T20:55:20.862Z,96098.53
2019-06-07T20:57:55.500Z,96103.41
2019-06-07T21:00:22.839Z,96103.72
2019-06-07T21:02:49.850Z,96099.02
2019-06-07T21:05:16.908Z,96092.09
2019-06-07T21:07:43.942Z,96090.59
2019-06-07T21:10:11.426Z,96089.78
2019-06-07T21:12:38.692Z,96098.72
2019-06-07T21:15:09.873Z,96104.91
2019-06-07T21:17:37.465Z,96112.02
2019-06-07T21:20:06.038Z,96118.34
2019-06-07T21:22:33.357Z,96108.33
2019-06-07T21:25:00.882Z,96104.58
2019-06-07T21:27:28.455Z,96093.77
2019-06-07T21:29:56.937Z,96094.27
2019-06-07T21:32:23.974Z,96102.95
2019-06-07T21:34:51.036Z,96102.95
2019-06-07T21:37:18.388Z,96113.77
2019-06-07T21:39:45.438Z,96113.14
2019-06-07T21:42:12.804Z,96121.33
2019-06-07T21:44:40.147Z,96128.16
2019-06-07T21:47:07.181Z,96127.97
2019-06-07T21:49:34.229Z,96124.90
2019-06-07T21:52:02.480Z,96109.02
2019-06-07T21:54:30.769Z,96108.98
2019-06-07T21:56:58.167Z,96101.30
2019-06-07T21:59:25.204Z,96111.80
2019-06-07T22:01:52.553Z,96116.17
2019-06-07T22:04:19.850Z,96111.98
2019-06-07T22:06:47.283Z,96116.05
2019-06-07T22:09:14.773Z,96123.80
2019-06-07T22:11:42.138Z,96136.98
2019-06-07T22:14:10.447Z,96138.34
2019-06-07T22:16:37.588Z,96134.59
2019-06-07T22:19:04.629Z,96137.03
2019-06-07T22:21:32.006Z,96132.78
2019-06-07T22:23:59.390Z,96131.66
2019-06-07T22:26:26.438Z,96136.23
2019-06-07T22:28:53.768Z,96125.04
2019-06-07T22:31:21.122Z,96136.41
2019-06-07T22:33:48.161Z,96133.09
2019-06-07T22:36:16.014Z,96141.79
2019-06-07T22:38:43.168Z,96146.86
2019-06-07T22:41:12.216Z,96144.41
2019-06-07T22:43:38.952Z,96146.54
2019-06-07T22:46:06.733Z,96153.78
2019-06-07T22:48:34.594Z,96150.16
2019-06-07T22:51:01.679Z,96165.86
2019-06-07T22:53:28.723Z,96178.80
2019-06-07T22:55:56.020Z,96184.31
2019-06-07T22:58:23.059Z,96192.33
2019-06-07T23:00:50.377Z,96204.24
2019-06-07T23:03:19.060Z,96212.52
2019-06-07T23:05:46.138Z,96214.06
2019-06-07T23:08:13.177Z,96216.01
2019-06-07T23:10:40.225Z,96216.32
2019-06-07T23:13:07.260Z,96214.33
2019-06-07T23:15:34.316Z,96213.33
2019-06-07T23:18:01.688Z,96220.58
2019-06-07T23:20:29.057Z,96219.70
2019-06-07T23:22:56.105Z,96216.95
2019-06-07T23:25:24.628Z,96224.70
2019-06-07T23:27:51.979Z,96228.14
2019-06-07T23:30:19.016Z,96224.96
2019-06-07T23:32:46.075Z,96231.08
2019-06-07T23:35:13.109Z,96232.77
2019-06-07T23:37:40.425Z,96232.63
2019-06-07T23:40:07.700Z,96220.47
2019-06-07T23:42:35.035Z,96202.24
2019-06-07T23:45:02.072Z,96208.72
2019-06-07T23:47:29.289Z,96220.25
2019-06-07T23:50:13.911Z,96224.10
2019-06-07T23:52:40.958Z,96225.98
2019-06-07T23:55:07.992Z,96224.98
2019-06-07T23:57:35.040Z,96215.91
